sensor_id;sensor_type;location;lat;lon;timestamp;P1;durP1;ratioP1;P2;durP2;ratioP2
11131;SDS011;5620;53.570;9.718;2023-03-03T00:02:01;12.25;;;7.93;;
11131;SDS011;5620;53.570;9.718;2023-03-03T00:04:28;11.83;;;6.63;;
11131;SDS011;5620;53.570;9.718;2023-03-03T00:06:55;18.98;;;7.85;;
11131;SDS011;5620;53.570;9.718;2023-03-03T00:09:21;13.63;;;7.90;;
11131;SDS011;5620;53.570;9.718;2023-03-03T00:11:48;21.10;;;8.50;;
11131;SDS011;5620;53.570;9.718;2023-03-03T00:17:11;9.68;;;6.65;;
11131;SDS011;5620;53.570;9.718;2023-03-03T00:19:46;9.38;;;7.13;;
11131;SDS011;5620;53.570;9.718;2023-03-03T00:22:35;7.53;;;6.50;;
11131;SDS011;5620;53.570;9.718;2023-03-03T00:27:53;22.83;;;7.70;;
11131;SDS011;5620;53.570;9.718;2023-03-03T00:30:27;16.08;;;6.30;;
11131;SDS011;5620;53.570;9.718;2023-03-03T00:32:54;7.23;;;6.57;;
11131;SDS011;5620;53.570;9.718;2023-03-03T00:35:31;13.07;;;6.93;;
11131;SDS011;5620;53.570;9.718;2023-03-03T00:38:01;10.77;;;6.72;;
11131;SDS011;5620;53.570;9.718;2023-03-03T00:40:49;10.90;;;6.25;;
11131;SDS011;5620;53.570;9.718;2023-03-03T00:43:56;7.60;;;6.00;;
11131;SDS011;5620;53.570;9.718;2023-03-03T00:46:23;11.20;;;7.18;;
11131;SDS011;5620;53.570;9.718;2023-03-03T00:48:51;13.00;;;6.95;;
11131;SDS011;5620;53.570;9.718;2023-03-03T00:53:58;7.67;;;5.67;;
11131;SDS011;5620;53.570;9.718;2023-03-03T00:56:24;8.15;;;6.15;;
11131;SDS011;5620;53.570;9.718;2023-03-03T00:58:52;12.90;;;7.43;;
11131;SDS011;5620;53.570;9.718;2023-03-03T01:01:22;14.90;;;5.22;;
11131;SDS011;5620;53.570;9.718;2023-03-03T01:03:49;60.58;;;23.30;;
11131;SDS011;5620;53.570;9.718;2023-03-03T01:06:17;15.83;;;6.57;;
11131;SDS011;5620;53.570;9.718;2023-03-03T01:08:44;13.05;;;4.43;;
11131;SDS011;5620;53.570;9.718;2023-03-03T01:11:19;8.88;;;6.32;;
11131;SDS011;5620;53.570;9.718;2023-03-03T01:13:49;19.35;;;6.78;;
11131;SDS011;5620;53.570;9.718;2023-03-03T01:16:16;20.85;;;6.85;;
11131;SDS011;5620;53.570;9.718;2023-03-03T01:18:44;18.80;;;5.23;;
11131;SDS011;5620;53.570;9.718;2023-03-03T01:21:12;14.20;;;7.30;;
11131;SDS011;5620;53.570;9.718;2023-03-03T01:23:39;15.25;;;6.20;;
11131;SDS011;5620;53.570;9.718;2023-03-03T01:26:06;13.85;;;5.82;;
11131;SDS011;5620;53.570;9.718;2023-03-03T01:28:35;14.95;;;5.53;;
11131;SDS011;5620;53.570;9.718;2023-03-03T01:31:01;13.90;;;5.30;;
11131;SDS011;5620;53.570;9.718;2023-03-03T01:33:31;15.73;;;6.40;;
11131;SDS011;5620;53.570;9.718;2023-03-03T01:35:59;14.25;;;5.60;;
11131;SDS011;5620;53.570;9.718;2023-03-03T01:38:25;12.25;;;7.25;;
11131;SDS011;5620;53.570;9.718;2023-03-03T01:40:55;32.45;;;6.18;;
11131;SDS011;5620;53.570;9.718;2023-03-03T01:43:27;21.03;;;5.67;;
11131;SDS011;5620;53.570;9.718;2023-03-03T01:49:06;11.68;;;5.90;;
11131;SDS011;5620;53.570;9.718;2023-03-03T01:51:46;11.57;;;5.63;;
11131;SDS011;5620;53.570;9.718;2023-03-03T01:54:42;14.80;;;6.35;;
11131;SDS011;5620;53.570;9.718;2023-03-03T01:57:15;9.13;;;5.93;;
11131;SDS011;5620;53.570;9.718;2023-03-03T01:59:52;18.90;;;6.18;;
11131;SDS011;5620;53.570;9.718;2023-03-03T02:02:24;5.15;;;4.80;;
11131;SDS011;5620;53.570;9.718;2023-03-03T02:04:53;17.05;;;6.13;;
11131;SDS011;5620;53.570;9.718;2023-03-03T02:07:21;26.73;;;5.55;;
11131;SDS011;5620;53.570;9.718;2023-03-03T02:12:45;23.40;;;4.60;;
11131;SDS011;5620;53.570;9.718;2023-03-03T02:15:29;5.38;;;4.55;;
11131;SDS011;5620;53.570;9.718;2023-03-03T02:17:58;9.38;;;5.10;;
11131;SDS011;5620;53.570;9.718;2023-03-03T02:23:32;20.33;;;5.07;;
11131;SDS011;5620;53.570;9.718;2023-03-03T02:29:02;5.05;;;4.63;;
11131;SDS011;5620;53.570;9.718;2023-03-03T02:31:33;28.33;;;5.50;;
11131;SDS011;5620;53.570;9.718;2023-03-03T02:34:01;16.35;;;5.25;;
11131;SDS011;5620;53.570;9.718;2023-03-03T02:44:37;16.17;;;5.72;;
11131;SDS011;5620;53.570;9.718;2023-03-03T02:47:04;20.35;;;6.80;;
11131;SDS011;5620;53.570;9.718;2023-03-03T02:49:32;5.90;;;5.40;;
11131;SDS011;5620;53.570;9.718;2023-03-03T02:51:59;9.93;;;5.15;;
11131;SDS011;5620;53.570;9.718;2023-03-03T02:54:28;28.02;;;7.30;;
11131;SDS011;5620;53.570;9.718;2023-03-03T02:56:56;11.43;;;5.33;;
11131;SDS011;5620;53.570;9.718;2023-03-03T02:59:23;15.80;;;6.45;;
11131;SDS011;5620;53.570;9.718;2023-03-03T03:01:50;9.35;;;5.47;;
11131;SDS011;5620;53.570;9.718;2023-03-03T03:04:19;16.15;;;5.63;;
11131;SDS011;5620;53.570;9.718;2023-03-03T03:06:53;25.48;;;6.65;;
11131;SDS011;5620;53.570;9.718;2023-03-03T03:09:20;19.55;;;6.93;;
11131;SDS011;5620;53.570;9.718;2023-03-03T03:11:48;15.30;;;6.10;;
11131;SDS011;5620;53.570;9.718;2023-03-03T03:14:14;12.13;;;6.73;;
11131;SDS011;5620;53.570;9.718;2023-03-03T03:16:42;9.30;;;7.32;;
11131;SDS011;5620;53.570;9.718;2023-03-03T03:19:09;22.95;;;6.18;;
11131;SDS011;5620;53.570;9.718;2023-03-03T03:21:36;6.22;;;5.63;;
11131;SDS011;5620;53.570;9.718;2023-03-03T03:24:03;28.52;;;6.15;;
11131;SDS011;5620;53.570;9.718;2023-03-03T03:26:30;15.80;;;5.67;;
11131;SDS011;5620;53.570;9.718;2023-03-03T03:28:58;5.13;;;4.65;;
11131;SDS011;5620;53.570;9.718;2023-03-03T03:31:24;19.52;;;7.70;;
11131;SDS011;5620;53.570;9.718;2023-03-03T03:33:51;12.43;;;6.23;;
11131;SDS011;5620;53.570;9.718;2023-03-03T03:36:19;13.32;;;6.32;;
11131;SDS011;5620;53.570;9.718;2023-03-03T03:38:46;25.45;;;6.47;;
11131;SDS011;5620;53.570;9.718;2023-03-03T03:41:13;13.15;;;6.65;;
11131;SDS011;5620;53.570;9.718;2023-03-03T03:43:40;28.63;;;8.20;;
11131;SDS011;5620;53.570;9.718;2023-03-03T03:46:06;6.00;;;5.30;;
11131;SDS011;5620;53.570;9.718;2023-03-03T03:48:33;8.98;;;5.13;;
11131;SDS011;5620;53.570;9.718;2023-03-03T03:51:00;18.85;;;8.25;;
11131;SDS011;5620;53.570;9.718;2023-03-03T03:53:26;12.20;;;5.68;;
11131;SDS011;5620;53.570;9.718;2023-03-03T03:55:53;12.45;;;6.07;;
11131;SDS011;5620;53.570;9.718;2023-03-03T03:58:20;16.03;;;4.23;;
11131;SDS011;5620;53.570;9.718;2023-03-03T04:00:47;13.00;;;6.03;;
11131;SDS011;5620;53.570;9.718;2023-03-03T04:03:15;9.15;;;6.18;;
11131;SDS011;5620;53.570;9.718;2023-03-03T04:05:42;7.80;;;6.53;;
11131;SDS011;5620;53.570;9.718;2023-03-03T04:08:09;9.60;;;6.32;;
11131;SDS011;5620;53.570;9.718;2023-03-03T04:10:37;12.07;;;5.73;;
11131;SDS011;5620;53.570;9.718;2023-03-03T04:13:05;6.03;;;3.80;;
11131;SDS011;5620;53.570;9.718;2023-03-03T04:15:33;7.10;;;5.00;;
11131;SDS011;5620;53.570;9.718;2023-03-03T04:18:01;3.53;;;3.22;;
11131;SDS011;5620;53.570;9.718;2023-03-03T04:20:29;5.25;;;4.88;;
11131;SDS011;5620;53.570;9.718;2023-03-03T04:22:56;9.40;;;4.50;;
11131;SDS011;5620;53.570;9.718;2023-03-03T04:25:22;5.85;;;5.38;;
11131;SDS011;5620;53.570;9.718;2023-03-03T04:27:49;8.50;;;5.72;;
11131;SDS011;5620;53.570;9.718;2023-03-03T04:30:16;5.97;;;5.47;;
11131;SDS011;5620;53.570;9.718;2023-03-03T04:32:42;10.60;;;6.70;;
11131;SDS011;5620;53.570;9.718;2023-03-03T04:35:10;17.13;;;6.30;;
11131;SDS011;5620;53.570;9.718;2023-03-03T04:37:37;8.00;;;6.50;;
11131;SDS011;5620;53.570;9.718;2023-03-03T04:40:05;11.05;;;5.88;;
11131;SDS011;5620;53.570;9.718;2023-03-03T04:42:35;9.20;;;6.10;;
11131;SDS011;5620;53.570;9.718;2023-03-03T04:45:04;15.37;;;5.60;;
11131;SDS011;5620;53.570;9.718;2023-03-03T04:47:33;6.90;;;5.55;;
11131;SDS011;5620;53.570;9.718;2023-03-03T04:50:00;7.68;;;5.80;;
11131;SDS011;5620;53.570;9.718;2023-03-03T04:52:27;18.88;;;4.38;;
11131;SDS011;5620;53.570;9.718;2023-03-03T04:54:56;9.02;;;6.15;;
11131;SDS011;5620;53.570;9.718;2023-03-03T04:57:23;12.50;;;6.17;;
11131;SDS011;5620;53.570;9.718;2023-03-03T04:59:48;12.45;;;5.05;;
11131;SDS011;5620;53.570;9.718;2023-03-03T05:02:16;9.10;;;4.63;;
11131;SDS011;5620;53.570;9.718;2023-03-03T05:04:45;9.75;;;5.63;;
11131;SDS011;5620;53.570;9.718;2023-03-03T05:07:11;8.33;;;4.43;;
11131;SDS011;5620;53.570;9.718;2023-03-03T05:09:39;13.88;;;5.25;;
11131;SDS011;5620;53.570;9.718;2023-03-03T05:12:15;5.85;;;5.35;;
11131;SDS011;5620;53.570;9.718;2023-03-03T05:14:43;5.28;;;4.68;;
11131;SDS011;5620;53.570;9.718;2023-03-03T05:17:10;11.95;;;5.13;;
11131;SDS011;5620;53.570;9.718;2023-03-03T05:19:35;6.30;;;5.70;;
11131;SDS011;5620;53.570;9.718;2023-03-03T05:22:02;10.57;;;5.38;;
11131;SDS011;5620;53.570;9.718;2023-03-03T05:24:29;6.80;;;4.90;;
11131;SDS011;5620;53.570;9.718;2023-03-03T05:26:57;7.30;;;4.88;;
11131;SDS011;5620;53.570;9.718;2023-03-03T05:29:25;16.42;;;5.85;;
11131;SDS011;5620;53.570;9.718;2023-03-03T05:31:52;15.00;;;4.70;;
11131;SDS011;5620;53.570;9.718;2023-03-03T05:34:19;6.13;;;5.63;;
11131;SDS011;5620;53.570;9.718;2023-03-03T05:36:45;6.95;;;4.97;;
11131;SDS011;5620;53.570;9.718;2023-03-03T05:39:12;10.43;;;5.47;;
11131;SDS011;5620;53.570;9.718;2023-03-03T05:41:40;5.35;;;4.88;;
11131;SDS011;5620;53.570;9.718;2023-03-03T05:44:05;11.80;;;5.20;;
11131;SDS011;5620;53.570;9.718;2023-03-03T05:46:33;6.70;;;5.65;;
11131;SDS011;5620;53.570;9.718;2023-03-03T05:48:59;10.20;;;6.57;;
11131;SDS011;5620;53.570;9.718;2023-03-03T05:51:27;7.38;;;6.07;;
11131;SDS011;5620;53.570;9.718;2023-03-03T05:53:53;7.05;;;5.28;;
11131;SDS011;5620;53.570;9.718;2023-03-03T05:56:20;6.10;;;5.55;;
11131;SDS011;5620;53.570;9.718;2023-03-03T05:58:45;9.90;;;5.80;;
11131;SDS011;5620;53.570;9.718;2023-03-03T06:01:12;7.97;;;5.38;;
11131;SDS011;5620;53.570;9.718;2023-03-03T06:03:39;19.73;;;9.18;;
11131;SDS011;5620;53.570;9.718;2023-03-03T06:06:07;8.20;;;4.97;;
11131;SDS011;5620;53.570;9.718;2023-03-03T06:08:35;9.98;;;5.63;;
11131;SDS011;5620;53.570;9.718;2023-03-03T06:11:00;13.40;;;5.80;;
11131;SDS011;5620;53.570;9.718;2023-03-03T06:13:27;5.50;;;4.77;;
11131;SDS011;5620;53.570;9.718;2023-03-03T06:15:54;6.32;;;3.85;;
11131;SDS011;5620;53.570;9.718;2023-03-03T06:18:21;9.48;;;4.47;;
11131;SDS011;5620;53.570;9.718;2023-03-03T06:20:52;8.68;;;4.70;;
11131;SDS011;5620;53.570;9.718;2023-03-03T06:23:21;12.77;;;4.93;;
11131;SDS011;5620;53.570;9.718;2023-03-03T06:25:48;10.05;;;4.40;;
11131;SDS011;5620;53.570;9.718;2023-03-03T06:28:15;9.00;;;6.65;;
11131;SDS011;5620;53.570;9.718;2023-03-03T06:30:44;11.90;;;6.47;;
11131;SDS011;5620;53.570;9.718;2023-03-03T06:33:14;10.23;;;5.43;;
11131;SDS011;5620;53.570;9.718;2023-03-03T06:35:47;7.43;;;5.43;;
11131;SDS011;5620;53.570;9.718;2023-03-03T06:38:18;5.22;;;4.82;;
11131;SDS011;5620;53.570;9.718;2023-03-03T06:40:45;13.00;;;5.68;;
11131;SDS011;5620;53.570;9.718;2023-03-03T06:43:14;6.07;;;4.47;;
11131;SDS011;5620;53.570;9.718;2023-03-03T06:45:41;7.55;;;4.53;;
11131;SDS011;5620;53.570;9.718;2023-03-03T06:48:07;5.10;;;4.32;;
11131;SDS011;5620;53.570;9.718;2023-03-03T06:50:34;8.57;;;4.38;;
11131;SDS011;5620;53.570;9.718;2023-03-03T06:55:45;14.07;;;4.13;;
11131;SDS011;5620;53.570;9.718;2023-03-03T06:58:16;4.45;;;4.20;;
11131;SDS011;5620;53.570;9.718;2023-03-03T07:00:45;6.30;;;2.65;;
11131;SDS011;5620;53.570;9.718;2023-03-03T07:03:25;8.68;;;6.75;;
11131;SDS011;5620;53.570;9.718;2023-03-03T07:05:58;3.40;;;2.87;;
11131;SDS011;5620;53.570;9.718;2023-03-03T07:08:27;8.57;;;3.33;;
11131;SDS011;5620;53.570;9.718;2023-03-03T07:11:00;7.13;;;3.53;;
11131;SDS011;5620;53.570;9.718;2023-03-03T07:13:33;8.93;;;3.70;;
11131;SDS011;5620;53.570;9.718;2023-03-03T07:16:11;5.05;;;4.68;;
11131;SDS011;5620;53.570;9.718;2023-03-03T07:18:51;10.87;;;3.17;;
11131;SDS011;5620;53.570;9.718;2023-03-03T07:21:33;3.75;;;3.50;;
11131;SDS011;5620;53.570;9.718;2023-03-03T07:24:12;3.97;;;3.67;;
11131;SDS011;5620;53.570;9.718;2023-03-03T07:29:58;7.25;;;4.75;;
11131;SDS011;5620;53.570;9.718;2023-03-03T07:32:54;5.23;;;4.00;;
11131;SDS011;5620;53.570;9.718;2023-03-03T07:35:35;3.95;;;3.67;;
11131;SDS011;5620;53.570;9.718;2023-03-03T07:41:01;6.32;;;4.20;;
11131;SDS011;5620;53.570;9.718;2023-03-03T07:43:34;4.40;;;4.10;;
11131;SDS011;5620;53.570;9.718;2023-03-03T07:49:00;13.05;;;2.65;;
11131;SDS011;5620;53.570;9.718;2023-03-03T07:51:37;9.25;;;3.42;;
11131;SDS011;5620;53.570;9.718;2023-03-03T08:08:28;2.92;;;2.72;;
11131;SDS011;5620;53.570;9.718;2023-03-03T08:10:59;4.00;;;3.70;;
11131;SDS011;5620;53.570;9.718;2023-03-03T08:21:27;11.32;;;2.70;;
11131;SDS011;5620;53.570;9.718;2023-03-03T08:23:55;2.65;;;2.45;;
11131;SDS011;5620;53.570;9.718;2023-03-03T08:26:23;4.23;;;3.20;;
11131;SDS011;5620;53.570;9.718;2023-03-03T08:28:49;5.38;;;1.92;;
11131;SDS011;5620;53.570;9.718;2023-03-03T08:31:17;3.15;;;2.92;;
11131;SDS011;5620;53.570;9.718;2023-03-03T08:33:44;4.07;;;2.10;;
11131;SDS011;5620;53.570;9.718;2023-03-03T08:36:11;3.22;;;2.92;;
11131;SDS011;5620;53.570;9.718;2023-03-03T08:38:39;3.70;;;2.33;;
11131;SDS011;5620;53.570;9.718;2023-03-03T08:41:04;2.95;;;2.30;;
11131;SDS011;5620;53.570;9.718;2023-03-03T08:43:32;10.43;;;3.63;;
11131;SDS011;5620;53.570;9.718;2023-03-03T08:46:01;2.03;;;1.92;;
11131;SDS011;5620;53.570;9.718;2023-03-03T08:48:33;2.92;;;2.72;;
11131;SDS011;5620;53.570;9.718;2023-03-03T08:51:01;1.93;;;1.83;;
11131;SDS011;5620;53.570;9.718;2023-03-03T08:53:29;4.30;;;2.25;;
11131;SDS011;5620;53.570;9.718;2023-03-03T08:55:56;9.85;;;2.72;;
11131;SDS011;5620;53.570;9.718;2023-03-03T08:58:26;4.38;;;2.30;;
11131;SDS011;5620;53.570;9.718;2023-03-03T09:00:53;2.72;;;2.38;;
11131;SDS011;5620;53.570;9.718;2023-03-03T09:03:18;2.23;;;2.13;;
11131;SDS011;5620;53.570;9.718;2023-03-03T09:05:45;4.40;;;2.92;;
11131;SDS011;5620;53.570;9.718;2023-03-03T09:08:13;3.55;;;3.25;;
11131;SDS011;5620;53.570;9.718;2023-03-03T09:10:40;2.47;;;2.28;;
11131;SDS011;5620;53.570;9.718;2023-03-03T09:13:13;2.88;;;2.67;;
11131;SDS011;5620;53.570;9.718;2023-03-03T09:15:41;3.70;;;3.40;;
11131;SDS011;5620;53.570;9.718;2023-03-03T09:20:56;12.27;;;2.97;;
11131;SDS011;5620;53.570;9.718;2023-03-03T09:29:08;3.13;;;2.88;;
11131;SDS011;5620;53.570;9.718;2023-03-03T09:34:50;2.88;;;2.67;;
11131;SDS011;5620;53.570;9.718;2023-03-03T09:40:18;3.45;;;2.22;;
11131;SDS011;5620;53.570;9.718;2023-03-03T09:43:53;2.60;;;2.40;;
11131;SDS011;5620;53.570;9.718;2023-03-03T09:46:08;2.80;;;2.50;;
11131;SDS011;5620;53.570;9.718;2023-03-03T09:49:02;3.45;;;3.15;;
11131;SDS011;5620;53.570;9.718;2023-03-03T09:52:02;2.13;;;1.95;;
11131;SDS011;5620;53.570;9.718;2023-03-03T10:16:08;3.22;;;2.92;;
11131;SDS011;5620;53.570;9.718;2023-03-03T10:18:49;3.80;;;3.53;;
11131;SDS011;5620;53.570;9.718;2023-03-03T10:24:23;4.65;;;3.95;;
11131;SDS011;5620;53.570;9.718;2023-03-03T10:50:30;5.00;;;4.50;;
11131;SDS011;5620;53.570;9.718;2023-03-03T10:53:14;5.35;;;4.65;;
11131;SDS011;5620;53.570;9.718;2023-03-03T10:55:56;5.32;;;4.82;;
11131;SDS011;5620;53.570;9.718;2023-03-03T11:02:00;9.85;;;6.97;;
11131;SDS011;5620;53.570;9.718;2023-03-03T11:04:41;13.27;;;6.50;;
11131;SDS011;5620;53.570;9.718;2023-03-03T11:10:27;28.25;;;14.43;;
11131;SDS011;5620;53.570;9.718;2023-03-03T11:13:36;14.02;;;8.15;;
11131;SDS011;5620;53.570;9.718;2023-03-03T11:36:44;11.73;;;7.15;;
11131;SDS011;5620;53.570;9.718;2023-03-03T11:39:27;12.25;;;7.15;;
11131;SDS011;5620;53.570;9.718;2023-03-03T11:45:11;7.80;;;4.10;;
11131;SDS011;5620;53.570;9.718;2023-03-03T11:48:05;5.57;;;3.13;;
11131;SDS011;5620;53.570;9.718;2023-03-03T11:51:02;8.85;;;3.10;;
11131;SDS011;5620;53.570;9.718;2023-03-03T11:56:40;5.90;;;3.50;;
11131;SDS011;5620;53.570;9.718;2023-03-03T12:14:04;6.50;;;2.33;;
11131;SDS011;5620;53.570;9.718;2023-03-03T12:20:35;3.03;;;2.15;;
11131;SDS011;5620;53.570;9.718;2023-03-03T12:26:01;2.95;;;1.70;;
11131;SDS011;5620;53.570;9.718;2023-03-03T12:34:54;3.80;;;2.03;;
11131;SDS011;5620;53.570;9.718;2023-03-03T12:40:39;3.30;;;2.15;;
11131;SDS011;5620;53.570;9.718;2023-03-03T12:43:41;3.70;;;2.28;;
11131;SDS011;5620;53.570;9.718;2023-03-03T12:49:20;2.42;;;1.55;;
11131;SDS011;5620;53.570;9.718;2023-03-03T12:54:47;3.70;;;1.30;;
11131;SDS011;5620;53.570;9.718;2023-03-03T12:57:50;2.97;;;1.30;;
11131;SDS011;5620;53.570;9.718;2023-03-03T13:09:29;2.03;;;1.27;;
11131;SDS011;5620;53.570;9.718;2023-03-03T13:17:52;1.73;;;1.27;;
11131;SDS011;5620;53.570;9.718;2023-03-03T13:27:04;6.90;;;1.08;;
11131;SDS011;5620;53.570;9.718;2023-03-03T13:29:50;1.42;;;1.10;;
11131;SDS011;5620;53.570;9.718;2023-03-03T13:35:44;1.70;;;1.30;;
11131;SDS011;5620;53.570;9.718;2023-03-03T13:38:23;3.00;;;1.20;;
11131;SDS011;5620;53.570;9.718;2023-03-03T13:43:46;1.92;;;1.23;;
11131;SDS011;5620;53.570;9.718;2023-03-03T13:46:31;4.05;;;1.25;;
11131;SDS011;5620;53.570;9.718;2023-03-03T13:53:01;3.05;;;1.15;;
11131;SDS011;5620;53.570;9.718;2023-03-03T14:07:27;4.05;;;2.03;;
11131;SDS011;5620;53.570;9.718;2023-03-03T14:10:05;4.93;;;2.08;;
11131;SDS011;5620;53.570;9.718;2023-03-03T14:13:00;1.65;;;1.25;;
11131;SDS011;5620;53.570;9.718;2023-03-03T14:21:28;3.95;;;1.88;;
11131;SDS011;5620;53.570;9.718;2023-03-03T14:24:20;3.53;;;2.13;;
11131;SDS011;5620;53.570;9.718;2023-03-03T14:26:53;2.17;;;1.23;;
11131;SDS011;5620;53.570;9.718;2023-03-03T14:32:24;3.95;;;1.80;;
11131;SDS011;5620;53.570;9.718;2023-03-03T14:34:57;6.85;;;1.73;;
11131;SDS011;5620;53.570;9.718;2023-03-03T14:43:00;1.90;;;1.15;;
11131;SDS011;5620;53.570;9.718;2023-03-03T14:48:18;3.40;;;1.27;;
11131;SDS011;5620;53.570;9.718;2023-03-03T14:53:53;2.95;;;1.45;;
11131;SDS011;5620;53.570;9.718;2023-03-03T14:56:32;2.03;;;1.50;;
11131;SDS011;5620;53.570;9.718;2023-03-03T14:59:29;3.63;;;2.08;;
11131;SDS011;5620;53.570;9.718;2023-03-03T15:04:42;2.58;;;1.48;;
11131;SDS011;5620;53.570;9.718;2023-03-03T15:10:09;1.63;;;1.00;;
11131;SDS011;5620;53.570;9.718;2023-03-03T15:12:35;2.88;;;2.20;;
11131;SDS011;5620;53.570;9.718;2023-03-03T15:18:00;12.52;;;3.22;;
11131;SDS011;5620;53.570;9.718;2023-03-03T15:32:24;13.27;;;3.17;;
11131;SDS011;5620;53.570;9.718;2023-03-03T15:38:15;7.38;;;2.20;;
11131;SDS011;5620;53.570;9.718;2023-03-03T15:51:49;5.10;;;1.65;;
11131;SDS011;5620;53.570;9.718;2023-03-03T16:03:34;8.70;;;1.60;;
11131;SDS011;5620;53.570;9.718;2023-03-03T16:06:21;8.35;;;1.45;;
11131;SDS011;5620;53.570;9.718;2023-03-03T16:20:17;10.57;;;2.03;;
11131;SDS011;5620;53.570;9.718;2023-03-03T16:34:19;12.13;;;3.83;;
11131;SDS011;5620;53.570;9.718;2023-03-03T16:37:11;10.77;;;2.22;;
11131;SDS011;5620;53.570;9.718;2023-03-03T16:42:43;2.60;;;1.35;;
11131;SDS011;5620;53.570;9.718;2023-03-03T16:56:35;22.20;;;4.88;;
11131;SDS011;5620;53.570;9.718;2023-03-03T17:02:40;16.63;;;2.90;;
11131;SDS011;5620;53.570;9.718;2023-03-03T17:08:39;10.20;;;3.25;;
11131;SDS011;5620;53.570;9.718;2023-03-03T17:11:40;12.68;;;3.03;;
11131;SDS011;5620;53.570;9.718;2023-03-03T17:14:48;9.88;;;3.17;;
11131;SDS011;5620;53.570;9.718;2023-03-03T17:32:18;10.27;;;2.30;;
11131;SDS011;5620;53.570;9.718;2023-03-03T17:46:54;18.38;;;2.35;;
11131;SDS011;5620;53.570;9.718;2023-03-03T17:52:17;11.50;;;2.22;;
11131;SDS011;5620;53.570;9.718;2023-03-03T18:18:02;9.80;;;2.40;;
11131;SDS011;5620;53.570;9.718;2023-03-03T18:26:52;2.95;;;1.20;;
11131;SDS011;5620;53.570;9.718;2023-03-03T18:29:22;7.72;;;2.20;;
11131;SDS011;5620;53.570;9.718;2023-03-03T18:32:17;3.08;;;1.63;;
11131;SDS011;5620;53.570;9.718;2023-03-03T18:34:46;17.80;;;2.53;;
11131;SDS011;5620;53.570;9.718;2023-03-03T18:42:48;15.93;;;2.20;;
11131;SDS011;5620;53.570;9.718;2023-03-03T18:48:04;6.97;;;3.70;;
11131;SDS011;5620;53.570;9.718;2023-03-03T18:59:24;11.77;;;3.25;;
11131;SDS011;5620;53.570;9.718;2023-03-03T19:02:16;10.05;;;2.67;;
11131;SDS011;5620;53.570;9.718;2023-03-03T19:10:53;10.90;;;1.90;;
11131;SDS011;5620;53.570;9.718;2023-03-03T19:16:01;4.13;;;2.33;;
11131;SDS011;5620;53.570;9.718;2023-03-03T19:44:38;8.95;;;1.50;;
11131;SDS011;5620;53.570;9.718;2023-03-03T19:56:17;5.70;;;1.92;;
11131;SDS011;5620;53.570;9.718;2023-03-03T20:02:24;18.97;;;3.60;;
11131;SDS011;5620;53.570;9.718;2023-03-03T20:11:20;20.98;;;4.10;;
11131;SDS011;5620;53.570;9.718;2023-03-03T20:14:01;9.48;;;3.13;;
11131;SDS011;5620;53.570;9.718;2023-03-03T20:16:45;20.77;;;3.97;;
11131;SDS011;5620;53.570;9.718;2023-03-03T20:22:22;8.20;;;1.83;;
11131;SDS011;5620;53.570;9.718;2023-03-03T20:34:10;8.60;;;1.35;;
11131;SDS011;5620;53.570;9.718;2023-03-03T20:37:08;10.18;;;2.67;;
11131;SDS011;5620;53.570;9.718;2023-03-03T20:45:42;5.63;;;2.70;;
11131;SDS011;5620;53.570;9.718;2023-03-03T20:48:36;15.95;;;2.55;;
11131;SDS011;5620;53.570;9.718;2023-03-03T20:51:30;13.25;;;3.20;;
11131;SDS011;5620;53.570;9.718;2023-03-03T21:08:50;15.45;;;3.17;;
11131;SDS011;5620;53.570;9.718;2023-03-03T21:13:58;8.15;;;2.70;;
11131;SDS011;5620;53.570;9.718;2023-03-03T21:16:37;12.55;;;1.92;;
11131;SDS011;5620;53.570;9.718;2023-03-03T21:21:56;14.60;;;3.13;;
11131;SDS011;5620;53.570;9.718;2023-03-03T21:27:29;15.75;;;3.10;;
11131;SDS011;5620;53.570;9.718;2023-03-03T21:30:14;15.00;;;3.55;;
11131;SDS011;5620;53.570;9.718;2023-03-03T21:32:45;15.25;;;2.40;;
11131;SDS011;5620;53.570;9.718;2023-03-03T21:35:15;5.22;;;2.60;;
11131;SDS011;5620;53.570;9.718;2023-03-03T21:40:28;7.47;;;2.20;;
11131;SDS011;5620;53.570;9.718;2023-03-03T21:42:55;9.93;;;3.30;;
11131;SDS011;5620;53.570;9.718;2023-03-03T21:45:23;7.82;;;2.42;;
11131;SDS011;5620;53.570;9.718;2023-03-03T21:47:52;12.38;;;1.60;;
11131;SDS011;5620;53.570;9.718;2023-03-03T21:50:20;13.32;;;2.45;;
11131;SDS011;5620;53.570;9.718;2023-03-03T21:52:48;7.05;;;1.98;;
11131;SDS011;5620;53.570;9.718;2023-03-03T21:55:15;16.15;;;2.53;;
11131;SDS011;5620;53.570;9.718;2023-03-03T21:57:42;7.63;;;1.85;;
11131;SDS011;5620;53.570;9.718;2023-03-03T22:00:09;14.38;;;2.17;;
11131;SDS011;5620;53.570;9.718;2023-03-03T22:02:38;2.38;;;1.85;;
11131;SDS011;5620;53.570;9.718;2023-03-03T22:05:04;14.87;;;2.90;;
11131;SDS011;5620;53.570;9.718;2023-03-03T22:07:31;10.15;;;2.15;;
11131;SDS011;5620;53.570;9.718;2023-03-03T22:09:58;6.53;;;2.10;;
11131;SDS011;5620;53.570;9.718;2023-03-03T22:12:26;7.80;;;2.17;;
11131;SDS011;5620;53.570;9.718;2023-03-03T22:14:54;7.97;;;2.13;;
11131;SDS011;5620;53.570;9.718;2023-03-03T22:17:21;10.32;;;1.95;;
11131;SDS011;5620;53.570;9.718;2023-03-03T22:19:47;11.00;;;2.85;;
11131;SDS011;5620;53.570;9.718;2023-03-03T22:22:14;8.05;;;1.33;;
11131;SDS011;5620;53.570;9.718;2023-03-03T22:24:40;15.93;;;3.20;;
11131;SDS011;5620;53.570;9.718;2023-03-03T22:27:07;5.53;;;2.35;;
11131;SDS011;5620;53.570;9.718;2023-03-03T22:29:34;3.47;;;1.63;;
11131;SDS011;5620;53.570;9.718;2023-03-03T22:32:02;17.02;;;2.78;;
11131;SDS011;5620;53.570;9.718;2023-03-03T22:34:29;6.80;;;1.80;;
11131;SDS011;5620;53.570;9.718;2023-03-03T22:36:55;3.47;;;1.38;;
11131;SDS011;5620;53.570;9.718;2023-03-03T22:39:22;6.82;;;1.60;;
11131;SDS011;5620;53.570;9.718;2023-03-03T22:41:49;6.27;;;2.47;;
11131;SDS011;5620;53.570;9.718;2023-03-03T22:44:14;4.60;;;1.40;;
11131;SDS011;5620;53.570;9.718;2023-03-03T22:46:42;10.88;;;1.70;;
11131;SDS011;5620;53.570;9.718;2023-03-03T22:49:09;3.77;;;0.93;;
11131;SDS011;5620;53.570;9.718;2023-03-03T22:51:36;3.47;;;1.40;;
11131;SDS011;5620;53.570;9.718;2023-03-03T22:54:04;8.38;;;1.75;;
11131;SDS011;5620;53.570;9.718;2023-03-03T22:56:34;12.32;;;1.58;;
11131;SDS011;5620;53.570;9.718;2023-03-03T22:59:01;3.88;;;1.90;;
11131;SDS011;5620;53.570;9.718;2023-03-03T23:01:31;10.00;;;2.10;;
11131;SDS011;5620;53.570;9.718;2023-03-03T23:03:59;9.80;;;1.77;;
11131;SDS011;5620;53.570;9.718;2023-03-03T23:06:25;18.98;;;2.95;;
11131;SDS011;5620;53.570;9.718;2023-03-03T23:08:53;7.75;;;1.75;;
11131;SDS011;5620;53.570;9.718;2023-03-03T23:11:18;6.70;;;2.15;;
11131;SDS011;5620;53.570;9.718;2023-03-03T23:13:47;7.00;;;2.43;;
11131;SDS011;5620;53.570;9.718;2023-03-03T23:16:12;11.77;;;2.10;;
11131;SDS011;5620;53.570;9.718;2023-03-03T23:18:40;12.57;;;2.97;;
11131;SDS011;5620;53.570;9.718;2023-03-03T23:21:08;13.95;;;2.22;;
11131;SDS011;5620;53.570;9.718;2023-03-03T23:23:36;5.45;;;2.22;;
11131;SDS011;5620;53.570;9.718;2023-03-03T23:26:02;9.07;;;1.53;;
11131;SDS011;5620;53.570;9.718;2023-03-03T23:28:29;7.65;;;1.17;;
11131;SDS011;5620;53.570;9.718;2023-03-03T23:31:05;12.00;;;1.80;;
11131;SDS011;5620;53.570;9.718;2023-03-03T23:33:33;2.70;;;0.77;;
11131;SDS011;5620;53.570;9.718;2023-03-03T23:36:00;3.63;;;1.10;;
11131;SDS011;5620;53.570;9.718;2023-03-03T23:38:28;7.22;;;1.38;;
11131;SDS011;5620;53.570;9.718;2023-03-03T23:40:58;3.35;;;1.10;;
11131;SDS011;5620;53.570;9.718;2023-03-03T23:43:25;11.00;;;2.03;;
11131;SDS011;5620;53.570;9.718;2023-03-03T23:45:50;7.70;;;1.65;;
11131;SDS011;5620;53.570;9.718;2023-03-03T23:48:16;5.95;;;1.08;;
11131;SDS011;5620;53.570;9.718;2023-03-03T23:50:43;7.00;;;1.83;;
11131;SDS011;5620;53.570;9.718;2023-03-03T23:53:10;6.32;;;1.55;;
11131;SDS011;5620;53.570;9.718;2023-03-03T23:55:37;7.00;;;1.67;;
11131;SDS011;5620;53.570;9.718;2023-03-03T23:58:04;6.85;;;1.63;;
